Time;durP1;ratioP1;P1;durP2;ratioP2;P2;SDS_P1;SDS_P2;PMS_P1;PMS_P2;Temp;Humidity;BMP_temperature;BMP_pressure;BME280_temperature;BME280_humidity;BME280_pressure;Samples;Min_cycle;Max_cycle;Signal;HPM_P1;HPM_P2
2023/03/03 00:00:24;;;;;;;131.90;62.60;;;;;;;-1.10;80.34;100479.25;103321;1253;112224;-70
2023/03/03 00:03:16;;;;;;;132.10;62.90;;;;;;;-1.12;80.33;100475.45;103673;1256;107275;-69
2023/03/03 00:05:43;;;;;;;138.60;62.90;;;;;;;-1.14;80.49;100479.19;102589;1256;1002916;-69
2023/03/03 00:08:11;;;;;;;126.30;61.90;;;;;;;-1.15;80.39;100473.02;101804;1253;1003795;-70
2023/03/03 00:10:39;;;;;;;127.20;62.00;;;;;;;-1.17;80.40;100468.72;103001;1254;1002867;-69
2023/03/03 00:13:13;;;;;;;130.20;62.00;;;;;;;-1.18;80.45;100469.89;103444;1255;1003083;-70
2023/03/03 00:15:40;;;;;;;127.00;61.50;;;;;;;-1.19;80.64;100468.17;103374;1258;107480;-69
2023/03/03 00:18:21;;;;;;;132.10;62.10;;;;;;;-1.18;80.79;100469.20;103314;1257;97963;-69
2023/03/03 00:20:55;;;;;;;124.90;61.90;;;;;;;-1.19;80.82;100468.17;103279;1254;1015494;-70
2023/03/03 00:23:35;;;;;;;121.30;61.20;;;;;;;-1.21;80.75;100469.85;103978;1254;97520;-70
2023/03/03 00:26:14;;;;;;;122.30;60.50;;;;;;;-1.23;80.57;100469.83;103208;1255;139051;-70
2023/03/03 00:28:47;;;;;;;124.50;59.50;;;;;;;-1.24;80.57;100466.05;102571;1257;1003486;-70
2023/03/03 00:31:19;;;;;;;124.60;59.60;;;;;;;-1.25;80.89;100454.77;103486;1257;140049;-70
2023/03/03 00:33:53;;;;;;;128.30;60.40;;;;;;;-1.25;80.79;100451.02;103864;1255;108320;-70
2023/03/03 00:36:38;;;;;;;132.10;60.90;;;;;;;-1.24;81.00;100450.19;102635;1260;1003604;-70
2023/03/03 00:39:17;;;;;;;;;;;;;;;-1.24;81.15;100442.85;104106;1253;112284;-70
2023/03/03 00:42:13;;;;;;;121.10;58.30;;;;;;;-1.25;81.14;100441.47;103340;1254;107686;-71
2023/03/03 00:44:45;;;;;;;121.40;57.10;;;;;;;-1.26;81.21;100440.27;103185;1255;139064;-70
2023/03/03 00:47:32;;;;;;;124.10;58.10;;;;;;;-1.26;81.15;100437.67;103299;1254;107918;-70
2023/03/03 00:50:28;;;;;;;120.90;57.10;;;;;;;-1.27;81.14;100432.89;102621;1254;1002935;-70
2023/03/03 00:53:11;;;;;;;132.20;61.10;;;;;;;-1.27;81.05;100432.52;103342;1254;111339;-70
2023/03/03 00:55:39;;;;;;;117.40;59.30;;;;;;;-1.28;81.13;100427.22;103341;1254;139004;-70
2023/03/03 00:58:07;;;;;;;124.80;58.90;;;;;;;-1.30;81.11;100425.83;103196;1254;97865;-69
2023/03/03 01:00:39;;;;;;;118.00;57.90;;;;;;;-1.32;81.27;100421.88;101809;1254;1002929;-69
2023/03/03 01:03:16;;;;;;;122.70;57.50;;;;;;;-1.33;81.46;100420.31;102455;1253;1003688;-70
2023/03/03 01:05:44;;;;;;;115.40;58.10;;;;;;;-1.33;81.30;100415.02;103146;1259;112328;-69
2023/03/03 01:08:12;;;;;;;114.40;57.10;;;;;;;-1.33;81.32;100410.59;103057;1255;139553;-68
2023/03/03 01:11:04;;;;;;;115.30;56.70;;;;;;;-1.33;81.53;100408.21;102534;1256;1003257;-69
2023/03/03 01:13:34;;;;;;;104.90;52.20;;;;;;;-1.34;81.40;100405.45;103433;1254;139610;-69
2023/03/03 01:16:06;;;;;;;112.60;55.20;;;;;;;-1.36;81.56;100404.74;103699;1254;97853;-70
2023/03/03 01:18:36;;;;;;;106.40;53.00;;;;;;;-1.36;81.80;100402.69;104655;1254;111525;-69
2023/03/03 01:21:04;;;;;;;101.00;51.90;;;;;;;-1.37;81.83;100395.36;102620;1253;1003167;-69
2023/03/03 01:23:34;;;;;;;105.00;51.30;;;;;;;-1.35;81.83;100388.73;103376;1256;97808;-69
2023/03/03 01:26:06;;;;;;;110.40;55.20;;;;;;;-1.35;81.66;100385.66;103132;1253;139032;-69
2023/03/03 01:28:37;;;;;;;105.00;51.70;;;;;;;-1.35;81.93;100377.47;103668;1254;97946;-69
2023/03/03 01:31:26;;;;;;;103.00;52.00;;;;;;;-1.35;81.72;100373.71;103237;1254;139129;-68
2023/03/03 01:33:56;;;;;;;100.90;50.80;;;;;;;-1.36;81.92;100371.32;102597;1256;1003292;-69
2023/03/03 01:36:28;;;;;;;100.40;51.10;;;;;;;-1.38;81.64;100371.11;103933;1253;97736;-69
2023/03/03 01:38:58;;;;;;;101.20;50.30;;;;;;;-1.39;81.79;100367.34;103217;1257;138844;-69
2023/03/03 01:41:31;;;;;;;97.30;49.60;;;;;;;-1.41;81.85;100369.01;102769;1256;1002973;-69
2023/03/03 01:44:11;;;;;;;98.90;50.10;;;;;;;-1.43;81.78;100365.89;102552;1254;1003351;-69
2023/03/03 01:46:55;;;;;;;101.10;50.70;;;;;;;-1.45;81.81;100361.23;103283;1253;108038;-70
2023/03/03 01:49:27;;;;;;;105.60;51.00;;;;;;;-1.48;81.86;100358.64;103208;1257;139229;-70
2023/03/03 01:51:58;;;;;;;95.90;49.10;;;;;;;-1.48;82.04;100353.70;103375;1258;107747;-70
2023/03/03 01:54:42;;;;;;;102.60;49.30;;;;;;;-1.48;82.17;100350.44;102614;1253;1003364;-69
2023/03/03 01:57:21;;;;;;;100.40;48.80;;;;;;;-1.49;82.22;100350.44;102644;1257;1002989;-71
2023/03/03 01:59:53;;;;;;;97.20;46.90;;;;;;;-1.49;82.36;100351.80;103134;1260;108908;-71
2023/03/03 02:02:25;;;;;;;92.60;48.30;;;;;;;-1.51;82.18;100356.20;103600;1254;138862;-69
2023/03/03 02:04:56;;;;;;;95.20;47.10;;;;;;;-1.52;82.20;100356.17;102548;1257;1003637;-69
2023/03/03 02:07:26;;;;;;;96.50;48.80;;;;;;;-1.52;82.31;100354.30;103284;1256;139152;-69
2023/03/03 02:10:11;;;;;;;97.00;48.60;;;;;;;-1.53;82.36;100352.75;104064;1254;111925;-69
2023/03/03 02:12:55;;;;;;;93.70;47.30;;;;;;;-1.53;82.59;100346.95;103823;1254;107288;-68
2023/03/03 02:15:42;;;;;;;92.80;47.50;;;;;;;-1.53;82.30;100349.00;103666;1253;97678;-70
2023/03/03 02:18:21;;;;;;;91.50;46.60;;;;;;;-1.53;82.33;100352.58;103915;1255;108026;-69
2023/03/03 02:21:12;;;;;;;97.80;48.80;;;;;;;-1.53;82.52;100355.31;103653;1254;138766;-70
2023/03/03 02:24:06;;;;;;;95.00;48.80;;;;;;;-1.52;82.62;100358.58;103642;1256;112314;-69
2023/03/03 02:26:48;;;;;;;89.20;46.40;;;;;;;-1.53;82.56;100357.02;104141;1257;138897;-68
2023/03/03 02:29:23;;;;;;;98.60;49.50;;;;;;;-1.53;82.59;100352.92;103616;1255;97797;-68
2023/03/03 02:32:02;;;;;;;94.60;48.60;;;;;;;-1.52;82.50;100349.37;103447;1256;1002996;-69
2023/03/03 02:34:43;;;;;;;95.00;47.60;;;;;;;-1.52;82.38;100351.41;103387;1254;1003486;-69
2023/03/03 02:37:10;;;;;;;99.00;47.30;;;;;;;-1.52;82.56;100354.81;104492;1255;139192;-69
2023/03/03 02:39:38;;;;;;;93.90;47.00;;;;;;;-1.53;82.51;100353.61;103512;1255;106699;-69
2023/03/03 02:42:12;;;;;;;100.80;48.50;;;;;;;-1.52;82.51;100352.27;103362;1254;97851;-69
2023/03/03 02:44:43;;;;;;;92.70;47.60;;;;;;;-1.53;82.54;100353.77;103092;1256;138974;-69
2023/03/03 02:47:13;;;;;;;96.80;47.80;;;;;;;-1.57;82.44;100355.75;102534;1256;1003077;-69
2023/03/03 02:49:44;;;;;;;99.20;48.40;;;;;;;-1.58;82.64;100350.45;103210;1254;139328;-69
2023/03/03 02:52:13;;;;;;;95.90;48.20;;;;;;;-1.57;82.71;100349.61;103561;1258;109591;-69
2023/03/03 02:54:43;;;;;;;94.50;47.50;;;;;;;-1.57;82.57;100346.56;103479;1256;1003237;-69
2023/03/03 02:57:11;;;;;;;102.80;49.20;;;;;;;-1.56;82.57;100347.23;102817;1257;1003771;-69
2023/03/03 02:59:40;;;;;;;92.40;47.00;;;;;;;-1.57;82.50;100349.45;103531;1258;97813;-69
2023/03/03 03:02:11;;;;;;;98.20;46.30;;;;;;;-1.58;82.75;100342.61;103235;1256;138722;-70
2023/03/03 03:04:49;;;;;;;96.10;47.50;;;;;;;-1.60;82.66;100344.80;103739;1258;106833;-70
2023/03/03 03:07:21;;;;;;;92.20;47.60;;;;;;;-1.62;82.74;100345.26;103325;1258;138975;-70
2023/03/03 03:09:49;;;;;;;93.40;48.30;;;;;;;-1.64;82.67;100342.82;103340;1259;108143;-70
2023/03/03 03:12:28;;;;;;;99.30;48.20;;;;;;;-1.66;82.64;100339.05;103859;1256;97799;-70
2023/03/03 03:15:00;;;;;;;92.50;45.40;;;;;;;-1.68;82.65;100330.66;103083;1255;139151;-70
2023/03/03 03:17:47;;;;;;;101.50;48.30;;;;;;;-1.69;82.98;100331.48;103825;1257;109203;-70
2023/03/03 03:20:36;;;;;;;96.20;47.50;;;;;;;-1.72;82.71;100338.08;102531;1258;1002547;-70
2023/03/03 03:23:03;;;;;;;100.00;48.00;;;;;;;-1.74;82.64;100338.39;103655;1257;108268;-70
2023/03/03 03:25:51;;;;;;;100.70;47.70;;;;;;;-1.76;82.94;100333.92;102810;1259;365786;-70
2023/03/03 03:28:23;;;;;;;99.20;48.80;;;;;;;-1.79;82.91;100333.67;103278;1260;110970;-70
2023/03/03 03:31:00;;;;;;;101.60;52.00;;;;;;;-1.82;83.06;100331.58;103659;1256;139133;-70
2023/03/03 03:33:32;;;;;;;103.10;51.60;;;;;;;-1.83;83.22;100334.98;102585;1256;1003603;-70
2023/03/03 03:36:20;;;;;;;111.40;52.40;;;;;;;-1.85;83.13;100334.41;103347;1255;109465;-70
2023/03/03 03:38:51;;;;;;;103.70;50.40;;;;;;;-1.88;83.23;100331.98;103593;1256;141017;-69
2023/03/03 03:41:38;;;;;;;109.80;51.00;;;;;;;-1.90;83.22;100335.35;103935;1256;112352;-70
2023/03/03 03:44:26;;;;;;;105.00;52.20;;;;;;;-1.93;83.28;100330.87;102502;1256;1002890;-70
2023/03/03 03:47:05;;;;;;;113.00;53.40;;;;;;;-1.94;83.38;100337.15;103470;1256;97688;-70
2023/03/03 03:49:53;;;;;;;104.90;50.50;;;;;;;-1.95;83.61;100329.64;102614;1253;1016087;-69
2023/03/03 03:52:30;;;;;;;103.50;50.90;;;;;;;-1.98;83.42;100325.63;103083;1256;1002365;-69
2023/03/03 03:55:02;;;;;;;104.10;50.90;;;;;;;-1.99;83.52;100325.79;103797;1258;139741;-70
2023/03/03 03:57:33;;;;;;;105.50;51.40;;;;;;;-2.00;83.60;100318.44;103404;1253;1003205;-71
2023/03/03 04:00:01;;;;;;;98.10;49.30;;;;;;;-2.01;83.53;100310.25;103699;1257;99710;-70
2023/03/03 04:02:39;;;;;;;104.50;49.90;;;;;;;-2.02;83.92;100310.39;103873;1254;138846;-70
2023/03/03 04:05:11;;;;;;;100.90;49.60;;;;;;;-2.04;83.76;100314.96;104213;1254;95885;-70
2023/03/03 04:07:58;;;;;;;100.90;47.90;;;;;;;-2.04;84.15;100315.98;103996;1253;139412;-70
2023/03/03 04:10:46;;;;;;;105.30;49.90;;;;;;;-2.04;84.18;100309.69;103557;1253;109096;-70
2023/03/03 04:13:19;;;;;;;105.60;50.60;;;;;;;-2.05;83.80;100311.89;103252;1255;139316;-70
2023/03/03 04:15:48;;;;;;;101.90;49.50;;;;;;;-2.04;83.93;100312.74;102506;1258;1003397;-69
2023/03/03 04:18:19;;;;;;;101.50;49.80;;;;;;;-2.04;83.96;100311.90;103301;1258;98051;-69
2023/03/03 04:20:57;;;;;;;109.00;51.60;;;;;;;-2.05;84.19;100307.79;103208;1256;138984;-69
2023/03/03 04:23:25;;;;;;;105.80;51.90;;;;;;;-2.05;84.23;100307.79;103329;1254;108703;-70
2023/03/03 04:25:52;;;;;;;106.00;51.10;;;;;;;-2.06;83.98;100302.83;103118;1259;139043;-70
2023/03/03 04:28:20;;;;;;;113.10;52.30;;;;;;;-2.07;83.96;100300.09;103703;1260;1003118;-71
2023/03/03 04:30:48;;;;;;;109.30;51.50;;;;;;;-2.08;84.08;100295.29;103301;1260;97798;-70
2023/03/03 04:33:16;;;;;;;113.20;53.50;;;;;;;-2.10;84.35;100294.23;103317;1253;112842;-70
2023/03/03 04:35:45;;;;;;;113.10;52.80;;;;;;;-2.11;84.35;100289.45;103244;1255;108775;-69
2023/03/03 04:38:16;;;;;;;107.60;52.40;;;;;;;-2.12;84.18;100292.48;103119;1256;139011;-69
2023/03/03 04:40:45;;;;;;;115.50;53.90;;;;;;;-2.14;84.06;100290.94;102484;1258;1002891;-69
2023/03/03 04:43:13;;;;;;;112.70;55.50;;;;;;;-2.17;84.49;100292.58;103353;1256;139633;-69
2023/03/03 04:45:40;;;;;;;111.80;56.30;;;;;;;-2.18;84.42;100293.56;103329;1253;111219;-70
2023/03/03 04:48:09;;;;;;;112.40;54.10;;;;;;;-2.18;84.20;100289.80;103496;1258;108768;-69
2023/03/03 04:50:36;;;;;;;117.80;54.80;;;;;;;-2.20;84.21;100282.28;103514;1256;138995;-69
2023/03/03 04:53:04;;;;;;;116.80;56.80;;;;;;;-2.20;84.51;100281.60;103252;1256;107754;-69
2023/03/03 04:55:32;;;;;;;115.90;56.50;;;;;;;-2.21;84.37;100277.16;102398;1256;1003583;-69
2023/03/03 04:58:02;;;;;;;122.90;57.10;;;;;;;-2.25;84.48;100275.89;103300;1253;112213;-69
2023/03/03 05:00:30;;;;;;;125.30;59.00;;;;;;;-2.28;84.55;100273.78;103137;1255;109389;-69
2023/03/03 05:02:58;;;;;;;124.40;57.50;;;;;;;-2.29;84.52;100273.27;102349;1258;1003259;-69
2023/03/03 05:05:37;;;;;;;121.30;57.30;;;;;;;-2.31;84.55;100271.84;102510;1255;1003057;-69
2023/03/03 05:08:08;;;;;;;128.90;60.30;;;;;;;-2.34;84.62;100268.35;103013;1256;139367;-70
2023/03/03 05:10:38;;;;;;;125.20;57.00;;;;;;;-2.36;84.52;100268.66;102442;1256;1002811;-69
2023/03/03 05:13:06;;;;;;;129.00;58.70;;;;;;;-2.38;84.63;100263.02;103120;1256;139638;-69
2023/03/03 05:15:34;;;;;;;122.90;58.10;;;;;;;-2.38;84.62;100268.29;103223;1259;97701;-69
2023/03/03 05:18:01;;;;;;;129.80;58.40;;;;;;;-2.38;84.83;100266.75;102481;1258;1002557;-70
2023/03/03 05:20:41;;;;;;;125.50;57.60;;;;;;;-2.39;84.96;100270.83;102367;1256;1002722;-69
2023/03/03 05:23:09;;;;;;;126.80;59.60;;;;;;;-2.38;84.98;100274.25;103124;1256;111392;-69
2023/03/03 05:25:36;;;;;;;124.60;60.70;;;;;;;-2.37;85.05;100275.46;103067;1260;139215;-70
2023/03/03 05:28:04;;;;;;;132.30;61.30;;;;;;;-2.33;84.90;100271.81;103190;1256;98690;-69
2023/03/03 05:30:34;;;;;;;133.20;60.80;;;;;;;-2.30;85.41;100265.58;102453;1260;1003146;-69
2023/03/03 05:33:04;;;;;;;137.20;61.90;;;;;;;-2.27;84.99;100267.15;103097;1256;139179;-68
2023/03/03 05:35:57;;;;;;;134.80;59.40;;;;;;;-2.23;85.41;100266.71;103255;1258;112023;-68
2023/03/03 05:38:25;;;;;;;139.30;61.40;;;;;;;-2.20;85.13;100266.42;103109;1256;140567;-68
2023/03/03 05:40:55;;;;;;;140.20;63.20;;;;;;;-2.17;85.46;100271.10;102389;1256;1002505;-69
2023/03/03 05:43:23;;;;;;;126.80;58.90;;;;;;;-2.12;85.27;100268.14;103182;1261;139414;-69
2023/03/03 05:46:01;;;;;;;143.60;58.60;;;;;;;-2.07;85.33;100267.38;103235;1258;97889;-69
2023/03/03 05:48:32;;;;;;;145.30;60.50;;;;;;;-2.06;85.54;100274.21;103173;1260;112390;-69
2023/03/03 05:51:03;;;;;;;142.60;62.70;;;;;;;-2.03;85.15;100272.89;102307;1254;1003333;-69
2023/03/03 05:53:34;;;;;;;146.20;61.10;;;;;;;-2.01;85.23;100268.84;103251;1254;97785;-69
2023/03/03 05:56:02;;;;;;;145.30;61.10;;;;;;;-1.98;85.42;100269.24;103161;1256;139014;-69
2023/03/03 05:58:37;;;;;;;;;;;;;;;-1.98;85.25;100269.91;103284;1259;97837;-67
2023/03/03 06:01:25;;;;;;;159.00;60.90;;;;;;;-1.98;85.47;100269.08;102427;1256;1002712;-69
2023/03/03 06:03:53;;;;;;;156.50;62.60;;;;;;;-1.96;85.46;100263.17;103243;1254;108270;-69
2023/03/03 06:06:23;;;;;;;141.90;59.00;;;;;;;-1.95;85.28;100256.55;103784;1254;1002472;-69
2023/03/03 06:08:52;;;;;;;143.40;60.20;;;;;;;-1.97;85.39;100252.91;102625;1253;1003049;-69
2023/03/03 06:11:32;;;;;;;146.70;59.20;;;;;;;-1.94;85.69;100256.73;103241;1256;99742;-69
2023/03/03 06:14:02;;;;;;;152.10;58.30;;;;;;;-1.93;85.58;100261.17;103120;1256;138861;-69
2023/03/03 06:16:31;;;;;;;152.70;59.30;;;;;;;-1.94;85.61;100264.06;102473;1256;1003449;-69
2023/03/03 06:19:02;;;;;;;152.60;59.00;;;;;;;-1.91;85.72;100269.57;102931;1254;1003225;-69
2023/03/03 06:21:32;;;;;;;164.70;56.70;;;;;;;-1.88;85.77;100270.45;104004;1257;106957;-69
2023/03/03 06:24:02;;;;;;;157.40;57.90;;;;;;;-1.89;85.57;100279.13;103210;1267;98618;-69
2023/03/03 06:26:32;;;;;;;164.40;57.50;;;;;;;-1.92;85.12;100275.00;103083;1256;139008;-70
2023/03/03 06:29:01;;;;;;;164.30;58.00;;;;;;;-1.93;85.57;100272.93;103345;1255;107818;-70
2023/03/03 06:31:28;;;;;;;172.60;57.30;;;;;;;-1.93;85.63;100271.23;103755;1256;139257;-69
2023/03/03 06:33:55;;;;;;;149.50;56.40;;;;;;;-1.92;85.45;100269.54;102541;1259;1002877;-69
2023/03/03 06:36:25;;;;;;;142.70;51.10;;;;;;;-1.90;85.73;100269.56;103244;1253;97794;-69
2023/03/03 06:38:52;;;;;;;142.80;52.10;;;;;;;-1.87;86.14;100270.98;103130;1256;139033;-73
2023/03/03 06:41:31;;;;;;;142.20;48.10;;;;;;;-1.84;86.29;100273.95;103301;1254;108931;-72
2023/03/03 06:43:59;;;;;;;124.50;46.20;;;;;;;-1.86;86.00;100272.37;103291;1253;139259;-73
2023/03/03 06:46:27;;;;;;;106.00;46.80;;;;;;;-1.87;85.80;100272.52;103180;1258;109109;-73
2023/03/03 06:48:54;;;;;;;125.60;46.10;;;;;;;-1.87;86.06;100272.52;103223;1258;97677;-72
2023/03/03 06:51:27;;;;;;;116.40;43.30;;;;;;;-1.88;86.33;100275.23;103378;1254;113057;-73
2023/03/03 06:53:56;;;;;;;127.20;45.70;;;;;;;-1.88;86.27;100271.83;103302;1258;107654;-77
2023/03/03 06:56:24;;;;;;;119.80;44.10;;;;;;;-1.86;86.19;100274.08;100919;1258;1015502;-73
2023/03/03 06:58:53;;;;;;;106.00;43.80;;;;;;;-1.85;86.34;100265.73;103317;1256;108736;-73
2023/03/03 07:01:22;;;;;;;119.80;42.90;;;;;;;-1.82;86.67;100269.35;103315;1256;139660;-73
2023/03/03 07:03:54;;;;;;;103.70;42.20;;;;;;;-1.76;86.75;100277.49;103339;1253;112384;-72
2023/03/03 07:06:26;;;;;;;113.60;42.70;;;;;;;-1.73;86.63;100276.88;103229;1253;107279;-71
2023/03/03 07:08:56;;;;;;;104.90;43.40;;;;;;;-1.67;86.72;100275.44;103616;1253;139218;-72
2023/03/03 07:11:25;;;;;;;122.50;43.90;;;;;;;-1.59;86.85;100264.85;103228;1258;108422;-71
2023/03/03 07:13:54;;;;;;;103.90;41.40;;;;;;;-1.54;86.91;100262.54;103045;1254;139572;-71
2023/03/03 07:16:27;;;;;;;115.20;40.70;;;;;;;-1.51;86.69;100262.58;103420;1256;112841;-70
2023/03/03 07:18:55;;;;;;;90.60;40.30;;;;;;;-1.51;86.55;100261.55;102936;1253;1003105;-71
2023/03/03 07:21:31;;;;;;;99.60;40.20;;;;;;;-1.49;86.58;100258.17;103226;1259;97701;-74
2023/03/03 07:24:00;;;;;;;101.80;40.90;;;;;;;-1.48;86.54;100254.77;103009;1254;110408;-74
2023/03/03 07:26:32;;;;;;;99.70;41.20;;;;;;;-1.49;86.56;100249.98;102907;1255;139160;-73
2023/03/03 07:29:01;;;;;;;100.40;39.30;;;;;;;-1.46;86.73;100250.02;103422;1256;111529;-71
2023/03/03 07:31:33;;;;;;;99.40;39.40;;;;;;;-1.46;86.37;100249.69;103129;1258;139946;-71
2023/03/03 07:34:04;;;;;;;109.80;39.70;;;;;;;-1.46;86.51;100250.04;103380;1258;98396;-72
2023/03/03 07:36:35;;;;;;;112.20;41.10;;;;;;;-1.42;86.62;100255.75;103955;1257;106751;-72
2023/03/03 07:39:24;;;;;;;98.80;39.30;;;;;;;-1.36;86.94;100261.82;103229;1255;139121;-71
2023/03/03 07:41:53;;;;;;;108.00;40.40;;;;;;;-1.32;86.68;100260.34;103431;1258;112981;-70
2023/03/03 07:44:26;;;;;;;104.00;40.30;;;;;;;-1.28;86.84;100271.82;103208;1255;139219;-70
2023/03/03 07:46:53;;;;;;;116.20;41.10;;;;;;;-1.26;86.68;100268.80;103322;1254;97838;-70
2023/03/03 07:49:30;;;;;;;107.20;40.10;;;;;;;-1.22;86.84;100265.45;103192;1259;138964;-71
2023/03/03 07:51:59;;;;;;;98.60;40.60;;;;;;;-1.17;87.01;100268.77;103367;1258;97800;-71
2023/03/03 07:54:35;;;;;;;96.40;41.20;;;;;;;-1.13;86.85;100270.18;103262;1254;111267;-70
2023/03/03 07:57:15;;;;;;;103.00;40.90;;;;;;;-1.09;86.88;100274.16;103140;1259;138708;-70
2023/03/03 07:59:47;;;;;;;101.40;39.40;;;;;;;-1.06;86.82;100269.46;103341;1259;97776;-70
2023/03/03 08:02:33;;;;;;;96.20;37.50;;;;;;;-1.04;86.83;100270.85;103501;1257;139042;-69
2023/03/03 08:05:00;;;;;;;84.50;36.50;;;;;;;-0.99;86.87;100272.11;103228;1258;97884;-70
2023/03/03 08:07:35;;;;;;;86.10;36.20;;;;;;;-0.93;86.73;100272.88;103041;1256;138830;-69
2023/03/03 08:10:23;;;;;;;91.40;37.70;;;;;;;-0.85;86.67;100271.13;103119;1257;108826;-70
2023/03/03 08:12:51;;;;;;;86.30;35.90;;;;;;;-0.79;86.52;100275.30;103053;1257;98460;-71
2023/03/03 08:15:31;;;;;;;84.00;37.80;;;;;;;-0.74;86.60;100280.83;103819;1258;138473;-72
2023/03/03 08:18:08;;;;;;;80.60;35.90;;;;;;;-0.67;86.49;100280.60;103736;1260;1002345;-70
2023/03/03 08:20:46;;;;;;;80.50;35.10;;;;;;;-0.59;86.28;100285.64;104382;1256;139636;-70
2023/03/03 08:23:15;;;;;;;78.40;34.10;;;;;;;-0.54;85.96;100288.61;104493;1258;107175;-71
2023/03/03 08:25:43;;;;;;;77.20;35.40;;;;;;;-0.52;85.86;100291.90;103895;1255;138687;-70
2023/03/03 08:28:20;;;;;;;79.90;35.00;;;;;;;-0.51;85.69;100292.08;102911;1258;1015557;-70
2023/03/03 08:30:48;;;;;;;74.20;32.80;;;;;;;-0.51;85.74;100294.83;103489;1254;97781;-71
2023/03/03 08:33:17;;;;;;;70.40;32.80;;;;;;;-0.50;85.47;100300.29;103353;1258;138599;-70
2023/03/03 08:36:05;;;;;;;73.70;32.40;;;;;;;-0.49;85.49;100305.42;103955;1260;108513;-70
2023/03/03 08:38:39;;;;;;;75.20;33.80;;;;;;;-0.46;85.35;100301.70;103392;1258;138702;-69
2023/03/03 08:41:07;;;;;;;79.50;35.50;;;;;;;-0.42;85.39;100307.39;103538;1254;108120;-69
2023/03/03 08:43:37;;;;;;;74.50;34.20;;;;;;;-0.38;85.29;100317.86;104191;1256;139064;-70
2023/03/03 08:46:09;;;;;;;77.00;34.50;;;;;;;-0.35;85.32;100317.41;103828;1260;1002352;-69
2023/03/03 08:48:36;;;;;;;79.40;36.70;;;;;;;-0.37;85.19;100324.70;103935;1260;107806;-69
2023/03/03 08:51:04;;;;;;;78.10;35.70;;;;;;;-0.35;85.34;100323.89;104158;1257;138748;-70
2023/03/03 08:53:33;;;;;;;79.20;37.50;;;;;;;-0.35;85.27;100321.01;102232;1257;1002935;-70
2023/03/03 08:56:04;;;;;;;83.30;38.40;;;;;;;-0.34;85.13;100325.80;103091;1254;138969;-70
2023/03/03 08:58:31;;;;;;;86.90;37.80;;;;;;;-0.30;85.28;100322.08;104541;1257;111125;-69
2023/03/03 09:01:02;;;;;;;88.30;37.70;;;;;;;-0.27;85.15;100322.63;103307;1259;138955;-70
2023/03/03 09:03:31;;;;;;;82.60;38.20;;;;;;;-0.25;85.08;100321.11;103402;1259;97699;-69
2023/03/03 09:05:58;;;;;;;79.40;37.00;;;;;;;-0.25;84.84;100321.63;103326;1259;107292;-70
2023/03/03 09:08:25;;;;;;;80.60;36.70;;;;;;;-0.24;85.08;100322.83;103195;1254;139225;-69
2023/03/03 09:10:53;;;;;;;76.80;35.20;;;;;;;-0.19;85.11;100324.25;103420;1260;112203;-69
2023/03/03 09:13:21;;;;;;;85.60;37.70;;;;;;;-0.14;84.82;100319.89;103391;1260;139393;-69
2023/03/03 09:15:49;;;;;;;86.40;37.20;;;;;;;-0.09;84.79;100319.60;104102;1257;96931;-69
2023/03/03 09:18:21;;;;;;;80.50;36.70;;;;;;;-0.06;84.74;100317.08;103258;1254;108304;-70
2023/03/03 09:20:50;;;;;;;77.70;35.10;;;;;;;-0.01;84.59;100311.50;103563;1254;138768;-71
2023/03/03 09:23:36;;;;;;;70.30;32.00;;;;;;;0.05;84.37;100301.83;103209;1260;111927;-68
2023/03/03 09:26:23;;;;;;;63.10;29.70;;;;;;;0.08;84.10;100296.04;103813;1254;138530;-69
2023/03/03 09:28:53;;;;;;;62.60;29.70;;;;;;;0.10;83.74;100294.36;103596;1257;97898;-69
2023/03/03 09:31:26;;;;;;;66.90;30.80;;;;;;;0.12;83.66;100291.13;103286;1254;138542;-71
2023/03/03 09:33:56;;;;;;;60.60;29.00;;;;;;;0.14;83.59;100286.17;103859;1254;96985;-71
2023/03/03 09:36:27;;;;;;;60.70;30.40;;;;;;;0.17;83.54;100282.79;103500;1259;111271;-71
2023/03/03 09:38:55;;;;;;;61.60;31.10;;;;;;;0.20;83.44;100287.80;103193;1255;138672;-68
2023/03/03 09:41:43;;;;;;;61.40;30.20;;;;;;;0.24;83.44;100284.59;104583;1254;98450;-70
2023/03/03 09:44:27;;;;;;;59.30;28.90;;;;;;;0.24;83.12;100284.93;103750;1254;1002359;-70
2023/03/03 09:47:13;;;;;;;63.20;29.60;;;;;;;0.27;83.04;100284.45;102654;1254;1003033;-69
2023/03/03 09:49:50;;;;;;;57.30;29.10;;;;;;;0.28;82.86;100279.84;103485;1254;139000;-69
2023/03/03 09:52:38;;;;;;;60.50;29.70;;;;;;;0.30;82.67;100275.23;103345;1254;107491;-69
2023/03/03 09:55:20;;;;;;;63.50;29.60;;;;;;;0.27;82.40;100268.20;104572;1254;139143;-69
2023/03/03 09:58:05;;;;;;;61.70;29.70;;;;;;;0.24;82.35;100269.54;103689;1255;106821;-69
2023/03/03 10:00:46;;;;;;;58.50;28.60;;;;;;;0.19;82.22;100264.72;103516;1255;97784;-68
2023/03/03 10:03:51;;;;;;;63.20;29.70;;;;;;;0.17;82.38;100260.58;103885;1254;112214;-69
2023/03/03 10:06:36;;;;;;;65.50;30.30;;;;;;;0.15;82.43;100262.59;102992;1254;1003564;-69
2023/03/03 10:09:54;;;;;;;59.90;29.50;;;;;;;0.11;82.31;100262.21;102823;1254;1003265;-70
2023/03/03 10:12:28;;;;;;;67.20;32.20;;;;;;;0.08;82.52;100266.13;103241;1259;107558;-71
2023/03/03 10:15:16;;;;;;;59.90;28.70;;;;;;;0.09;82.63;100269.38;103918;1254;138685;-70
2023/03/03 10:17:53;;;;;;;64.10;30.30;;;;;;;0.10;82.69;100269.05;103413;1254;112747;-70
2023/03/03 10:20:47;;;;;;;65.60;30.80;;;;;;;0.11;82.75;100262.90;103363;1254;138711;-69
2023/03/03 10:23:24;;;;;;;65.20;29.40;;;;;;;0.13;82.71;100266.86;104594;1254;96795;-70
2023/03/03 10:26:06;;;;;;;60.60;29.10;;;;;;;0.11;82.60;100270.95;103706;1254;1002371;-71
2023/03/03 10:28:53;;;;;;;60.70;28.90;;;;;;;0.08;82.55;100272.79;104522;1254;95906;-71
2023/03/03 10:31:31;;;;;;;56.50;28.60;;;;;;;0.08;82.62;100266.13;104229;1255;141492;-70
2023/03/03 10:34:07;;;;;;;62.10;28.30;;;;;;;0.10;82.60;100260.84;104552;1254;107820;-70
2023/03/03 10:36:49;;;;;;;56.90;26.90;;;;;;;0.11;82.58;100268.55;104607;1254;96894;-70
2023/03/03 10:39:32;;;;;;;54.40;27.20;;;;;;;0.11;82.44;100277.27;103733;1254;1002970;-69
2023/03/03 10:42:23;;;;;;;54.90;26.10;;;;;;;0.08;82.33;100280.99;103310;1259;97809;-70
2023/03/03 10:45:11;;;;;;;56.80;26.00;;;;;;;0.08;82.48;100286.98;103200;1254;138837;-70
2023/03/03 10:47:54;;;;;;;47.50;24.40;;;;;;;0.05;82.32;100281.15;103281;1254;107763;-72
2023/03/03 10:50:28;;;;;;;56.10;26.10;;;;;;;0.01;82.25;100286.91;103619;1254;138584;-69
2023/03/03 10:53:03;;;;;;;56.80;26.00;;;;;;;-0.06;82.17;100289.39;104669;1253;107387;-70
2023/03/03 10:55:48;;;;;;;52.20;26.90;;;;;;;-0.09;82.48;100293.12;104176;1254;140702;-69
2023/03/03 10:58:37;;;;;;;47.70;24.80;;;;;;;-0.07;82.49;100288.52;103317;1258;113224;-69
2023/03/03 11:01:18;;;;;;;46.90;24.20;;;;;;;-0.07;82.56;100285.27;104263;1254;107551;-70
2023/03/03 11:04:08;;;;;;;45.80;23.70;;;;;;;-0.05;82.64;100283.41;103875;1254;97870;-69
2023/03/03 11:06:46;;;;;;;44.40;23.60;;;;;;;-0.04;82.34;100278.98;104266;1254;108796;-70
2023/03/03 11:09:25;;;;;;;46.50;25.00;;;;;;;-0.03;82.41;100278.13;103534;1254;138692;-69
2023/03/03 11:11:59;;;;;;;46.30;25.10;;;;;;;-0.01;82.26;100285.84;104045;1254;111217;-69
2023/03/03 11:14:33;;;;;;;46.70;25.50;;;;;;;-0.02;82.16;100286.86;103098;1258;138654;-69
2023/03/03 11:17:11;;;;;;;49.40;25.50;;;;;;;0.00;82.24;100288.10;103554;1254;97657;-69
2023/03/03 11:19:52;;;;;;;43.80;23.90;;;;;;;0.01;82.30;100291.17;102823;1254;1002494;-69
2023/03/03 11:22:33;;;;;;;47.90;25.20;;;;;;;-0.04;82.19;100291.45;104312;1254;96697;-69
2023/03/03 11:25:12;;;;;;;46.70;23.80;;;;;;;-0.07;82.04;100289.71;103667;1254;111426;-69